sensor_id;sensor_type;location;lat;lon;timestamp;P1;durP1;ratioP1;P2;durP2;ratioP2
52468;SDS011;38381;53.688;10.776;2023-04-10T00:00:40;15.85;;;13.65;;
52468;SDS011;38381;53.688;10.776;2023-04-10T00:05:42;20.27;;;13.57;;
52468;SDS011;38381;53.688;10.776;2023-04-10T00:10:42;22.23;;;15.93;;
52468;SDS011;38381;53.688;10.776;2023-04-10T00:15:43;19.87;;;15.03;;
52468;SDS011;38381;53.688;10.776;2023-04-10T00:20:43;21.10;;;14.95;;
52468;SDS011;38381;53.688;10.776;2023-04-10T00:25:43;19.83;;;14.88;;
52468;SDS011;38381;53.688;10.776;2023-04-10T00:30:46;20.45;;;15.25;;
52468;SDS011;38381;53.688;10.776;2023-04-10T00:35:47;23.58;;;15.50;;
52468;SDS011;38381;53.688;10.776;2023-04-10T00:40:48;18.50;;;16.73;;
52468;SDS011;38381;53.688;10.776;2023-04-10T00:45:48;18.87;;;14.83;;
52468;SDS011;38381;53.688;10.776;2023-04-10T00:50:48;18.83;;;14.90;;
52468;SDS011;38381;53.688;10.776;2023-04-10T00:55:49;20.10;;;14.13;;
52468;SDS011;38381;53.688;10.776;2023-04-10T01:00:49;21.48;;;14.82;;
52468;SDS011;38381;53.688;10.776;2023-04-10T01:05:52;16.33;;;13.70;;
52468;SDS011;38381;53.688;10.776;2023-04-10T01:11:04;24.15;;;16.80;;
52468;SDS011;38381;53.688;10.776;2023-04-10T01:16:15;18.58;;;14.20;;
52468;SDS011;38381;53.688;10.776;2023-04-10T01:21:19;22.70;;;13.07;;
52468;SDS011;38381;53.688;10.776;2023-04-10T01:26:30;20.17;;;14.05;;
52468;SDS011;38381;53.688;10.776;2023-04-10T01:31:44;16.25;;;13.60;;
52468;SDS011;38381;53.688;10.776;2023-04-10T01:36:59;18.25;;;14.27;;
52468;SDS011;38381;53.688;10.776;2023-04-10T01:42:02;15.75;;;13.23;;
52468;SDS011;38381;53.688;10.776;2023-04-10T01:47:05;19.42;;;14.75;;
52468;SDS011;38381;53.688;10.776;2023-04-10T01:52:07;22.55;;;15.02;;
52468;SDS011;38381;53.688;10.776;2023-04-10T01:57:08;22.77;;;15.57;;
52468;SDS011;38381;53.688;10.776;2023-04-10T02:02:09;17.57;;;15.70;;
52468;SDS011;38381;53.688;10.776;2023-04-10T02:07:13;18.10;;;13.43;;
52468;SDS011;38381;53.688;10.776;2023-04-10T02:12:53;15.77;;;14.15;;
52468;SDS011;38381;53.688;10.776;2023-04-10T02:17:53;17.27;;;13.27;;
52468;SDS011;38381;53.688;10.776;2023-04-10T02:22:55;16.38;;;13.60;;
52468;SDS011;38381;53.688;10.776;2023-04-10T02:28:05;19.75;;;14.55;;
52468;SDS011;38381;53.688;10.776;2023-04-10T02:33:06;18.33;;;14.23;;
52468;SDS011;38381;53.688;10.776;2023-04-10T02:38:06;17.10;;;14.73;;
52468;SDS011;38381;53.688;10.776;2023-04-10T02:43:07;22.80;;;15.80;;
52468;SDS011;38381;53.688;10.776;2023-04-10T02:48:07;18.02;;;13.30;;
52468;SDS011;38381;53.688;10.776;2023-04-10T02:53:07;20.13;;;16.40;;
52468;SDS011;38381;53.688;10.776;2023-04-10T02:58:08;22.95;;;16.25;;
52468;SDS011;38381;53.688;10.776;2023-04-10T03:03:08;24.60;;;15.68;;
52468;SDS011;38381;53.688;10.776;2023-04-10T03:08:09;24.58;;;16.98;;
52468;SDS011;38381;53.688;10.776;2023-04-10T03:13:09;22.98;;;15.85;;
52468;SDS011;38381;53.688;10.776;2023-04-10T03:18:10;25.80;;;16.67;;
52468;SDS011;38381;53.688;10.776;2023-04-10T03:23:10;20.37;;;16.83;;
52468;SDS011;38381;53.688;10.776;2023-04-10T03:28:11;20.60;;;15.57;;
52468;SDS011;38381;53.688;10.776;2023-04-10T03:33:11;21.00;;;16.23;;
52468;SDS011;38381;53.688;10.776;2023-04-10T03:38:12;21.13;;;16.50;;
52468;SDS011;38381;53.688;10.776;2023-04-10T03:43:13;23.42;;;17.23;;
52468;SDS011;38381;53.688;10.776;2023-04-10T03:48:13;22.33;;;16.80;;
52468;SDS011;38381;53.688;10.776;2023-04-10T03:53:14;20.40;;;15.57;;
52468;SDS011;38381;53.688;10.776;2023-04-10T03:58:16;21.02;;;15.63;;
52468;SDS011;38381;53.688;10.776;2023-04-10T04:03:17;20.05;;;15.32;;
52468;SDS011;38381;53.688;10.776;2023-04-10T04:08:17;27.10;;;17.00;;
52468;SDS011;38381;53.688;10.776;2023-04-10T04:13:18;20.67;;;16.67;;
52468;SDS011;38381;53.688;10.776;2023-04-10T04:18:18;20.98;;;17.52;;
52468;SDS011;38381;53.688;10.776;2023-04-10T04:23:19;25.60;;;16.15;;
52468;SDS011;38381;53.688;10.776;2023-04-10T04:28:19;21.80;;;17.30;;
52468;SDS011;38381;53.688;10.776;2023-04-10T04:33:20;19.20;;;16.73;;
52468;SDS011;38381;53.688;10.776;2023-04-10T04:38:20;23.15;;;16.15;;
52468;SDS011;38381;53.688;10.776;2023-04-10T04:43:20;24.97;;;18.03;;
52468;SDS011;38381;53.688;10.776;2023-04-10T04:48:21;21.42;;;16.10;;
52468;SDS011;38381;53.688;10.776;2023-04-10T04:53:21;20.65;;;17.15;;
52468;SDS011;38381;53.688;10.776;2023-04-10T04:58:22;17.13;;;14.68;;
52468;SDS011;38381;53.688;10.776;2023-04-10T05:03:23;22.92;;;17.92;;
52468;SDS011;38381;53.688;10.776;2023-04-10T05:08:24;27.90;;;19.60;;
52468;SDS011;38381;53.688;10.776;2023-04-10T05:13:24;29.40;;;18.10;;
52468;SDS011;38381;53.688;10.776;2023-04-10T05:18:24;23.77;;;19.10;;
52468;SDS011;38381;53.688;10.776;2023-04-10T05:23:25;22.75;;;17.27;;
52468;SDS011;38381;53.688;10.776;2023-04-10T05:28:26;26.77;;;20.65;;
52468;SDS011;38381;53.688;10.776;2023-04-10T05:33:26;26.92;;;19.38;;
52468;SDS011;38381;53.688;10.776;2023-04-10T05:38:27;27.77;;;21.05;;
52468;SDS011;38381;53.688;10.776;2023-04-10T05:43:27;27.23;;;19.40;;
52468;SDS011;38381;53.688;10.776;2023-04-10T05:48:28;23.73;;;19.63;;
52468;SDS011;38381;53.688;10.776;2023-04-10T05:53:28;25.90;;;20.05;;
52468;SDS011;38381;53.688;10.776;2023-04-10T05:58:31;24.40;;;17.90;;
52468;SDS011;38381;53.688;10.776;2023-04-10T06:03:32;24.98;;;19.50;;
52468;SDS011;38381;53.688;10.776;2023-04-10T06:08:32;22.52;;;18.33;;
52468;SDS011;38381;53.688;10.776;2023-04-10T06:13:33;22.98;;;17.55;;
52468;SDS011;38381;53.688;10.776;2023-04-10T06:18:34;22.52;;;19.30;;
52468;SDS011;38381;53.688;10.776;2023-04-10T06:23:34;20.92;;;18.15;;
52468;SDS011;38381;53.688;10.776;2023-04-10T06:28:36;22.40;;;18.20;;
52468;SDS011;38381;53.688;10.776;2023-04-10T06:33:37;23.23;;;18.52;;
52468;SDS011;38381;53.688;10.776;2023-04-10T06:38:37;25.20;;;18.80;;
52468;SDS011;38381;53.688;10.776;2023-04-10T06:43:38;21.95;;;17.08;;
52468;SDS011;38381;53.688;10.776;2023-04-10T06:48:38;21.98;;;17.30;;
52468;SDS011;38381;53.688;10.776;2023-04-10T06:53:39;18.40;;;15.73;;
52468;SDS011;38381;53.688;10.776;2023-04-10T06:58:39;16.80;;;14.82;;
52468;SDS011;38381;53.688;10.776;2023-04-10T07:03:40;16.10;;;14.38;;
52468;SDS011;38381;53.688;10.776;2023-04-10T07:08:40;19.85;;;17.00;;
52468;SDS011;38381;53.688;10.776;2023-04-10T07:13:41;17.70;;;15.70;;
52468;SDS011;38381;53.688;10.776;2023-04-10T07:18:41;18.50;;;14.15;;
52468;SDS011;38381;53.688;10.776;2023-04-10T07:23:42;19.75;;;15.02;;
52468;SDS011;38381;53.688;10.776;2023-04-10T07:28:42;19.90;;;15.68;;
52468;SDS011;38381;53.688;10.776;2023-04-10T07:33:44;19.55;;;15.73;;
52468;SDS011;38381;53.688;10.776;2023-04-10T07:38:45;17.52;;;15.60;;
52468;SDS011;38381;53.688;10.776;2023-04-10T07:43:46;20.55;;;17.38;;
52468;SDS011;38381;53.688;10.776;2023-04-10T07:48:46;18.15;;;14.43;;
52468;SDS011;38381;53.688;10.776;2023-04-10T07:53:47;18.05;;;15.35;;
52468;SDS011;38381;53.688;10.776;2023-04-10T07:58:47;20.73;;;15.85;;
52468;SDS011;38381;53.688;10.776;2023-04-10T08:03:48;18.77;;;14.13;;
52468;SDS011;38381;53.688;10.776;2023-04-10T08:08:49;16.80;;;14.48;;
52468;SDS011;38381;53.688;10.776;2023-04-10T08:13:51;19.97;;;15.47;;
52468;SDS011;38381;53.688;10.776;2023-04-10T08:18:53;16.90;;;14.50;;
52468;SDS011;38381;53.688;10.776;2023-04-10T08:23:57;15.82;;;14.13;;
52468;SDS011;38381;53.688;10.776;2023-04-10T08:33:59;16.55;;;14.23;;
52468;SDS011;38381;53.688;10.776;2023-04-10T08:39:00;14.05;;;12.00;;
52468;SDS011;38381;53.688;10.776;2023-04-10T08:44:00;15.13;;;12.87;;
52468;SDS011;38381;53.688;10.776;2023-04-10T08:49:02;12.85;;;11.55;;
52468;SDS011;38381;53.688;10.776;2023-04-10T08:54:07;11.90;;;10.75;;
52468;SDS011;38381;53.688;10.776;2023-04-10T08:59:13;11.57;;;10.38;;
52468;SDS011;38381;53.688;10.776;2023-04-10T09:04:13;13.30;;;10.93;;
52468;SDS011;38381;53.688;10.776;2023-04-10T09:09:16;11.88;;;10.00;;
52468;SDS011;38381;53.688;10.776;2023-04-10T09:14:26;11.30;;;9.32;;
52468;SDS011;38381;53.688;10.776;2023-04-10T09:19:29;12.55;;;9.93;;
52468;SDS011;38381;53.688;10.776;2023-04-10T09:24:39;11.85;;;9.63;;
52468;SDS011;38381;53.688;10.776;2023-04-10T09:29:42;11.82;;;9.52;;
52468;SDS011;38381;53.688;10.776;2023-04-10T09:39:55;10.23;;;8.23;;
52468;SDS011;38381;53.688;10.776;2023-04-10T09:44:56;12.15;;;9.40;;
52468;SDS011;38381;53.688;10.776;2023-04-10T09:49:58;9.00;;;8.10;;
52468;SDS011;38381;53.688;10.776;2023-04-10T09:55:01;10.27;;;8.77;;
52468;SDS011;38381;53.688;10.776;2023-04-10T10:00:04;8.88;;;7.75;;
52468;SDS011;38381;53.688;10.776;2023-04-10T10:05:06;9.27;;;8.15;;
52468;SDS011;38381;53.688;10.776;2023-04-10T10:10:07;8.38;;;7.53;;
52468;SDS011;38381;53.688;10.776;2023-04-10T10:15:19;8.57;;;6.80;;
52468;SDS011;38381;53.688;10.776;2023-04-10T10:20:21;8.30;;;7.50;;
52468;SDS011;38381;53.688;10.776;2023-04-10T10:25:24;8.05;;;7.25;;
52468;SDS011;38381;53.688;10.776;2023-04-10T10:30:25;6.57;;;5.87;;
52468;SDS011;38381;53.688;10.776;2023-04-10T10:35:26;7.20;;;5.68;;
52468;SDS011;38381;53.688;10.776;2023-04-10T10:45:33;6.57;;;5.25;;
52468;SDS011;38381;53.688;10.776;2023-04-10T10:50:53;6.07;;;5.05;;
52468;SDS011;38381;53.688;10.776;2023-04-10T10:55:57;5.88;;;4.85;;
52468;SDS011;38381;53.688;10.776;2023-04-10T11:06:05;5.50;;;4.77;;
52468;SDS011;38381;53.688;10.776;2023-04-10T11:11:08;5.40;;;4.40;;
52468;SDS011;38381;53.688;10.776;2023-04-10T11:16:15;6.30;;;5.10;;
52468;SDS011;38381;53.688;10.776;2023-04-10T11:21:19;4.95;;;4.40;;
52468;SDS011;38381;53.688;10.776;2023-04-10T11:31:43;5.82;;;4.80;;
52468;SDS011;38381;53.688;10.776;2023-04-10T11:36:54;7.18;;;5.22;;
52468;SDS011;38381;53.688;10.776;2023-04-10T11:41:54;6.80;;;5.80;;
52468;SDS011;38381;53.688;10.776;2023-04-10T11:46:57;6.28;;;5.00;;
52468;SDS011;38381;53.688;10.776;2023-04-10T11:51:58;6.45;;;5.82;;
52468;SDS011;38381;53.688;10.776;2023-04-10T11:57:00;6.50;;;5.13;;
52468;SDS011;38381;53.688;10.776;2023-04-10T12:02:09;6.38;;;5.45;;
52468;SDS011;38381;53.688;10.776;2023-04-10T12:07:13;5.95;;;4.47;;
52468;SDS011;38381;53.688;10.776;2023-04-10T12:12:13;6.13;;;5.03;;
52468;SDS011;38381;53.688;10.776;2023-04-10T12:17:14;6.03;;;4.60;;
52468;SDS011;38381;53.688;10.776;2023-04-10T12:22:16;5.47;;;4.83;;
52468;SDS011;38381;53.688;10.776;2023-04-10T12:27:26;5.68;;;4.80;;
52468;SDS011;38381;53.688;10.776;2023-04-10T12:32:27;5.75;;;4.97;;
52468;SDS011;38381;53.688;10.776;2023-04-10T12:37:47;5.30;;;4.80;;
52468;SDS011;38381;53.688;10.776;2023-04-10T12:42:51;5.40;;;4.38;;
52468;SDS011;38381;53.688;10.776;2023-04-10T12:47:51;5.68;;;5.13;;
52468;SDS011;38381;53.688;10.776;2023-04-10T12:53:05;5.32;;;4.82;;
52468;SDS011;38381;53.688;10.776;2023-04-10T12:58:16;6.70;;;5.35;;
52468;SDS011;38381;53.688;10.776;2023-04-10T13:03:21;8.10;;;5.57;;
52468;SDS011;38381;53.688;10.776;2023-04-10T13:08:22;5.43;;;4.53;;
52468;SDS011;38381;53.688;10.776;2023-04-10T13:13:22;5.68;;;4.80;;
52468;SDS011;38381;53.688;10.776;2023-04-10T13:18:22;5.68;;;4.70;;
52468;SDS011;38381;53.688;10.776;2023-04-10T13:23:23;4.13;;;3.77;;
52468;SDS011;38381;53.688;10.776;2023-04-10T13:28:24;5.07;;;4.53;;
52468;SDS011;38381;53.688;10.776;2023-04-10T13:33:25;4.77;;;3.90;;
52468;SDS011;38381;53.688;10.776;2023-04-10T13:38:25;6.33;;;4.07;;
52468;SDS011;38381;53.688;10.776;2023-04-10T13:43:26;9.07;;;4.50;;
52468;SDS011;38381;53.688;10.776;2023-04-10T13:48:27;5.93;;;4.20;;
52468;SDS011;38381;53.688;10.776;2023-04-10T13:53:27;8.60;;;4.50;;
52468;SDS011;38381;53.688;10.776;2023-04-10T13:58:27;4.63;;;4.10;;
52468;SDS011;38381;53.688;10.776;2023-04-10T14:03:30;8.32;;;6.70;;
52468;SDS011;38381;53.688;10.776;2023-04-10T14:08:31;5.72;;;3.30;;
52468;SDS011;38381;53.688;10.776;2023-04-10T14:13:31;5.00;;;4.00;;
52468;SDS011;38381;53.688;10.776;2023-04-10T14:18:32;8.38;;;4.88;;
52468;SDS011;38381;53.688;10.776;2023-04-10T14:23:32;3.55;;;3.25;;
52468;SDS011;38381;53.688;10.776;2023-04-10T14:28:33;5.25;;;3.88;;
52468;SDS011;38381;53.688;10.776;2023-04-10T14:33:34;6.07;;;4.55;;
52468;SDS011;38381;53.688;10.776;2023-04-10T14:38:34;4.28;;;3.53;;
52468;SDS011;38381;53.688;10.776;2023-04-10T14:43:36;5.18;;;4.07;;
52468;SDS011;38381;53.688;10.776;2023-04-10T14:48:36;5.32;;;4.05;;
52468;SDS011;38381;53.688;10.776;2023-04-10T14:53:37;5.15;;;4.45;;
52468;SDS011;38381;53.688;10.776;2023-04-10T14:58:38;6.45;;;4.35;;
52468;SDS011;38381;53.688;10.776;2023-04-10T15:03:39;5.45;;;4.65;;
52468;SDS011;38381;53.688;10.776;2023-04-10T15:08:39;5.30;;;4.60;;
52468;SDS011;38381;53.688;10.776;2023-04-10T15:13:40;5.53;;;5.03;;
52468;SDS011;38381;53.688;10.776;2023-04-10T15:18:40;5.27;;;4.77;;
52468;SDS011;38381;53.688;10.776;2023-04-10T15:23:41;6.15;;;5.53;;
52468;SDS011;38381;53.688;10.776;2023-04-10T15:28:41;4.72;;;4.30;;
52468;SDS011;38381;53.688;10.776;2023-04-10T15:33:42;7.32;;;5.43;;
52468;SDS011;38381;53.688;10.776;2023-04-10T15:38:42;5.53;;;4.85;;
52468;SDS011;38381;53.688;10.776;2023-04-10T15:43:43;7.13;;;5.13;;
52468;SDS011;38381;53.688;10.776;2023-04-10T15:48:43;6.80;;;5.35;;
52468;SDS011;38381;53.688;10.776;2023-04-10T15:53:46;5.70;;;4.55;;
52468;SDS011;38381;53.688;10.776;2023-04-10T15:58:47;9.45;;;4.75;;
52468;SDS011;38381;53.688;10.776;2023-04-10T16:03:47;10.45;;;4.82;;
52468;SDS011;38381;53.688;10.776;2023-04-10T16:08:49;5.10;;;4.60;;
52468;SDS011;38381;53.688;10.776;2023-04-10T16:13:51;7.15;;;5.55;;
52468;SDS011;38381;53.688;10.776;2023-04-10T16:18:51;12.50;;;6.60;;
52468;SDS011;38381;53.688;10.776;2023-04-10T16:23:53;7.18;;;5.40;;
52468;SDS011;38381;53.688;10.776;2023-04-10T16:28:53;5.57;;;4.63;;
52468;SDS011;38381;53.688;10.776;2023-04-10T16:33:54;6.68;;;4.85;;
52468;SDS011;38381;53.688;10.776;2023-04-10T16:38:54;6.00;;;4.50;;
52468;SDS011;38381;53.688;10.776;2023-04-10T16:43:55;5.38;;;3.58;;
52468;SDS011;38381;53.688;10.776;2023-04-10T16:48:56;4.90;;;3.95;;
52468;SDS011;38381;53.688;10.776;2023-04-10T16:53:56;7.07;;;4.07;;
52468;SDS011;38381;53.688;10.776;2023-04-10T16:58:57;4.93;;;4.17;;
52468;SDS011;38381;53.688;10.776;2023-04-10T17:03:57;5.17;;;4.63;;
52468;SDS011;38381;53.688;10.776;2023-04-10T17:08:58;4.47;;;3.50;;
52468;SDS011;38381;53.688;10.776;2023-04-10T17:13:58;6.13;;;4.53;;
52468;SDS011;38381;53.688;10.776;2023-04-10T17:18:59;5.95;;;5.05;;
52468;SDS011;38381;53.688;10.776;2023-04-10T17:23:59;10.23;;;6.03;;
52468;SDS011;38381;53.688;10.776;2023-04-10T17:29:00;6.40;;;5.70;;
52468;SDS011;38381;53.688;10.776;2023-04-10T17:34:00;6.03;;;4.75;;
52468;SDS011;38381;53.688;10.776;2023-04-10T17:39:00;6.22;;;5.50;;
52468;SDS011;38381;53.688;10.776;2023-04-10T17:44:01;6.55;;;5.28;;
52468;SDS011;38381;53.688;10.776;2023-04-10T17:49:02;7.22;;;5.15;;
52468;SDS011;38381;53.688;10.776;2023-04-10T17:54:03;5.22;;;4.60;;
52468;SDS011;38381;53.688;10.776;2023-04-10T17:59:03;6.13;;;5.43;;
52468;SDS011;38381;53.688;10.776;2023-04-10T18:04:04;6.50;;;5.43;;
52468;SDS011;38381;53.688;10.776;2023-04-10T18:09:04;5.57;;;4.97;;
52468;SDS011;38381;53.688;10.776;2023-04-10T18:14:05;6.13;;;5.07;;
52468;SDS011;38381;53.688;10.776;2023-04-10T18:19:05;5.93;;;5.18;;
52468;SDS011;38381;53.688;10.776;2023-04-10T18:24:06;5.45;;;4.90;;
52468;SDS011;38381;53.688;10.776;2023-04-10T18:29:09;6.68;;;5.18;;
52468;SDS011;38381;53.688;10.776;2023-04-10T18:34:10;6.30;;;5.10;;
52468;SDS011;38381;53.688;10.776;2023-04-10T18:39:10;5.67;;;5.13;;
52468;SDS011;38381;53.688;10.776;2023-04-10T18:44:11;5.95;;;4.93;;
52468;SDS011;38381;53.688;10.776;2023-04-10T18:49:12;6.25;;;5.70;;
52468;SDS011;38381;53.688;10.776;2023-04-10T18:54:12;6.33;;;5.73;;
52468;SDS011;38381;53.688;10.776;2023-04-10T18:59:13;7.55;;;5.95;;
52468;SDS011;38381;53.688;10.776;2023-04-10T19:04:13;6.40;;;5.23;;
52468;SDS011;38381;53.688;10.776;2023-04-10T19:09:14;5.90;;;5.30;;
52468;SDS011;38381;53.688;10.776;2023-04-10T19:14:15;6.38;;;5.70;;
52468;SDS011;38381;53.688;10.776;2023-04-10T19:19:15;7.75;;;7.05;;
52468;SDS011;38381;53.688;10.776;2023-04-10T19:24:16;7.60;;;6.90;;
52468;SDS011;38381;53.688;10.776;2023-04-10T19:29:16;6.60;;;5.93;;
52468;SDS011;38381;53.688;10.776;2023-04-10T19:34:16;7.43;;;6.00;;
52468;SDS011;38381;53.688;10.776;2023-04-10T19:39:17;6.03;;;5.45;;
52468;SDS011;38381;53.688;10.776;2023-04-10T19:44:17;6.60;;;5.83;;
52468;SDS011;38381;53.688;10.776;2023-04-10T19:49:18;6.70;;;5.97;;
52468;SDS011;38381;53.688;10.776;2023-04-10T19:54:18;6.63;;;5.90;;
52468;SDS011;38381;53.688;10.776;2023-04-10T19:59:18;6.47;;;5.85;;
52468;SDS011;38381;53.688;10.776;2023-04-10T20:04:19;7.67;;;5.97;;
52468;SDS011;38381;53.688;10.776;2023-04-10T20:09:19;6.78;;;6.15;;
52468;SDS011;38381;53.688;10.776;2023-04-10T20:14:20;8.82;;;5.78;;
52468;SDS011;38381;53.688;10.776;2023-04-10T20:19:20;6.45;;;5.85;;
52468;SDS011;38381;53.688;10.776;2023-04-10T20:24:21;6.65;;;5.53;;
52468;SDS011;38381;53.688;10.776;2023-04-10T20:29:21;6.50;;;5.60;;
52468;SDS011;38381;53.688;10.776;2023-04-10T20:34:21;8.07;;;5.97;;
52468;SDS011;38381;53.688;10.776;2023-04-10T20:39:22;6.05;;;5.43;;
52468;SDS011;38381;53.688;10.776;2023-04-10T20:44:23;7.57;;;5.18;;
52468;SDS011;38381;53.688;10.776;2023-04-10T20:49:23;5.82;;;5.22;;
52468;SDS011;38381;53.688;10.776;2023-04-10T20:54:24;6.53;;;5.93;;
52468;SDS011;38381;53.688;10.776;2023-04-10T20:59:25;7.15;;;6.00;;
52468;SDS011;38381;53.688;10.776;2023-04-10T21:04:25;5.60;;;4.63;;
52468;SDS011;38381;53.688;10.776;2023-04-10T21:09:26;6.72;;;5.63;;
52468;SDS011;38381;53.688;10.776;2023-04-10T21:14:26;6.70;;;5.22;;
52468;SDS011;38381;53.688;10.776;2023-04-10T21:19:27;5.55;;;4.97;;
52468;SDS011;38381;53.688;10.776;2023-04-10T21:24:27;6.93;;;5.97;;
52468;SDS011;38381;53.688;10.776;2023-04-10T21:29:28;5.53;;;5.03;;
52468;SDS011;38381;53.688;10.776;2023-04-10T21:34:29;6.68;;;5.10;;
52468;SDS011;38381;53.688;10.776;2023-04-10T21:39:29;5.20;;;4.70;;
52468;SDS011;38381;53.688;10.776;2023-04-10T21:44:30;7.90;;;5.37;;
52468;SDS011;38381;53.688;10.776;2023-04-10T21:49:30;5.65;;;5.03;;
52468;SDS011;38381;53.688;10.776;2023-04-10T21:54:30;5.53;;;4.30;;
52468;SDS011;38381;53.688;10.776;2023-04-10T21:59:31;5.55;;;4.63;;
52468;SDS011;38381;53.688;10.776;2023-04-10T22:04:32;5.38;;;4.05;;
52468;SDS011;38381;53.688;10.776;2023-04-10T22:09:32;5.40;;;4.50;;
52468;SDS011;38381;53.688;10.776;2023-04-10T22:14:33;4.82;;;4.28;;
52468;SDS011;38381;53.688;10.776;2023-04-10T22:19:33;6.25;;;4.47;;
52468;SDS011;38381;53.688;10.776;2023-04-10T22:24:33;5.77;;;4.67;;
52468;SDS011;38381;53.688;10.776;2023-04-10T22:29:34;5.33;;;4.83;;
52468;SDS011;38381;53.688;10.776;2023-04-10T22:34:34;5.47;;;4.78;;
52468;SDS011;38381;53.688;10.776;2023-04-10T22:39:35;5.72;;;4.32;;
52468;SDS011;38381;53.688;10.776;2023-04-10T22:44:35;5.43;;;4.90;;
52468;SDS011;38381;53.688;10.776;2023-04-10T22:49:36;8.75;;;4.78;;
52468;SDS011;38381;53.688;10.776;2023-04-10T22:54:36;5.63;;;4.47;;
52468;SDS011;38381;53.688;10.776;2023-04-10T22:59:37;5.57;;;4.60;;
52468;SDS011;38381;53.688;10.776;2023-04-10T23:04:37;5.05;;;4.47;;
52468;SDS011;38381;53.688;10.776;2023-04-10T23:09:37;5.43;;;4.45;;
52468;SDS011;38381;53.688;10.776;2023-04-10T23:14:38;8.10;;;4.93;;
52468;SDS011;38381;53.688;10.776;2023-04-10T23:19:38;5.70;;;5.03;;
52468;SDS011;38381;53.688;10.776;2023-04-10T23:24:39;5.20;;;4.57;;
52468;SDS011;38381;53.688;10.776;2023-04-10T23:29:39;6.40;;;5.00;;
52468;SDS011;38381;53.688;10.776;2023-04-10T23:34:39;5.22;;;4.72;;
52468;SDS011;38381;53.688;10.776;2023-04-10T23:39:40;6.78;;;4.78;;
52468;SDS011;38381;53.688;10.776;2023-04-10T23:44:40;6.97;;;5.72;;
52468;SDS011;38381;53.688;10.776;2023-04-10T23:49:40;5.43;;;4.93;;
52468;SDS011;38381;53.688;10.776;2023-04-10T23:54:41;6.30;;;5.03;;
52468;SDS011;38381;53.688;10.776;2023-04-10T23:59:42;6.32;;;5.72;;
